sensor_id;sensor_type;location;lat;lon;timestamp;temperature;humidity
58153;DHT22;43967;51.634;5.566;2022-08-21T00:01:43;26.20;54.40
58153;DHT22;43967;51.634;5.566;2022-08-21T00:06:44;26.20;54.50
58153;DHT22;43967;51.634;5.566;2022-08-21T00:11:46;26.20;54.50
58153;DHT22;43967;51.634;5.566;2022-08-21T00:16:47;26.20;54.50
58153;DHT22;43967;51.634;5.566;2022-08-21T00:21:48;26.20;54.50
58153;DHT22;43967;51.634;5.566;2022-08-21T00:26:50;26.10;54.40
58153;DHT22;43967;51.634;5.566;2022-08-21T00:31:51;26.10;54.50
58153;DHT22;43967;51.634;5.566;2022-08-21T00:36:52;26.10;54.50
58153;DHT22;43967;51.634;5.566;2022-08-21T00:41:53;26.10;54.40
58153;DHT22;43967;51.634;5.566;2022-08-21T00:46:54;26.10;54.40
58153;DHT22;43967;51.634;5.566;2022-08-21T00:51:57;26.10;54.40
58153;DHT22;43967;51.634;5.566;2022-08-21T00:57:05;26.10;54.50
58153;DHT22;43967;51.634;5.566;2022-08-21T01:02:08;26.10;54.40
58153;DHT22;43967;51.634;5.566;2022-08-21T01:07:09;26.10;54.40
58153;DHT22;43967;51.634;5.566;2022-08-21T01:12:11;26.10;54.40
58153;DHT22;43967;51.634;5.566;2022-08-21T01:17:13;26.10;54.50
58153;DHT22;43967;51.634;5.566;2022-08-21T01:22:15;26.10;54.40
58153;DHT22;43967;51.634;5.566;2022-08-21T01:27:16;26.10;54.50
58153;DHT22;43967;51.634;5.566;2022-08-21T01:32:19;26.00;54.40
58153;DHT22;43967;51.634;5.566;2022-08-21T01:37:21;26.00;54.40
58153;DHT22;43967;51.634;5.566;2022-08-21T01:42:23;26.10;55.20
58153;DHT22;43967;51.634;5.566;2022-08-21T01:47:24;26.00;54.50
58153;DHT22;43967;51.634;5.566;2022-08-21T01:52:25;26.10;54.50
58153;DHT22;43967;51.634;5.566;2022-08-21T01:57:26;26.00;54.40
58153;DHT22;43967;51.634;5.566;2022-08-21T02:02:28;26.00;54.40
58153;DHT22;43967;51.634;5.566;2022-08-21T02:07:39;26.00;54.40
58153;DHT22;43967;51.634;5.566;2022-08-21T02:12:40;26.00;54.40
58153;DHT22;43967;51.634;5.566;2022-08-21T02:17:45;26.00;54.40
58153;DHT22;43967;51.634;5.566;2022-08-21T02:22:47;25.90;54.30
58153;DHT22;43967;51.634;5.566;2022-08-21T02:27:49;25.90;54.30
58153;DHT22;43967;51.634;5.566;2022-08-21T02:32:50;25.90;54.40
58153;DHT22;43967;51.634;5.566;2022-08-21T02:37:57;25.90;54.40
58153;DHT22;43967;51.634;5.566;2022-08-21T02:42:59;25.90;54.30
58153;DHT22;43967;51.634;5.566;2022-08-21T02:48:06;25.90;54.30
58153;DHT22;43967;51.634;5.566;2022-08-21T02:53:10;25.90;54.30
58153;DHT22;43967;51.634;5.566;2022-08-21T02:58:13;25.90;54.40
58153;DHT22;43967;51.634;5.566;2022-08-21T03:03:15;25.90;54.30
58153;DHT22;43967;51.634;5.566;2022-08-21T03:08:18;25.90;54.30
58153;DHT22;43967;51.634;5.566;2022-08-21T03:13:20;25.90;54.30
58153;DHT22;43967;51.634;5.566;2022-08-21T03:18:22;25.90;54.30
58153;DHT22;43967;51.634;5.566;2022-08-21T03:23:23;25.90;54.30
58153;DHT22;43967;51.634;5.566;2022-08-21T03:28:24;25.90;54.30
58153;DHT22;43967;51.634;5.566;2022-08-21T03:33:25;25.80;54.20
58153;DHT22;43967;51.634;5.566;2022-08-21T03:38:28;25.80;54.30
58153;DHT22;43967;51.634;5.566;2022-08-21T03:43:29;25.80;54.20
58153;DHT22;43967;51.634;5.566;2022-08-21T03:48:30;25.80;54.20
58153;DHT22;43967;51.634;5.566;2022-08-21T03:53:32;25.80;54.20
58153;DHT22;43967;51.634;5.566;2022-08-21T03:58:33;25.80;54.20
58153;DHT22;43967;51.634;5.566;2022-08-21T04:03:36;25.80;54.20
58153;DHT22;43967;51.634;5.566;2022-08-21T04:08:37;25.80;54.20
58153;DHT22;43967;51.634;5.566;2022-08-21T04:13:38;25.70;54.10
58153;DHT22;43967;51.634;5.566;2022-08-21T04:18:41;25.70;54.20
58153;DHT22;43967;51.634;5.566;2022-08-21T04:23:42;25.70;54.10
58153;DHT22;43967;51.634;5.566;2022-08-21T04:28:43;25.70;54.10
58153;DHT22;43967;51.634;5.566;2022-08-21T04:33:44;25.70;54.10
58153;DHT22;43967;51.634;5.566;2022-08-21T04:38:45;25.70;54.10
58153;DHT22;43967;51.634;5.566;2022-08-21T04:43:46;25.70;54.10
58153;DHT22;43967;51.634;5.566;2022-08-21T04:48:48;25.70;54.10
58153;DHT22;43967;51.634;5.566;2022-08-21T04:53:59;25.70;54.00
58153;DHT22;43967;51.634;5.566;2022-08-21T04:59:04;25.70;54.10
58153;DHT22;43967;51.634;5.566;2022-08-21T05:04:08;25.70;54.00
58153;DHT22;43967;51.634;5.566;2022-08-21T05:09:13;25.70;54.00
58153;DHT22;43967;51.634;5.566;2022-08-21T05:14:15;25.70;54.00
58153;DHT22;43967;51.634;5.566;2022-08-21T05:19:16;25.60;53.90
58153;DHT22;43967;51.634;5.566;2022-08-21T05:24:17;25.70;54.00
58153;DHT22;43967;51.634;5.566;2022-08-21T05:29:18;25.70;54.10
58153;DHT22;43967;51.634;5.566;2022-08-21T05:34:22;25.70;54.10
58153;DHT22;43967;51.634;5.566;2022-08-21T05:39:23;25.60;54.10
58153;DHT22;43967;51.634;5.566;2022-08-21T05:44:24;25.60;54.00
58153;DHT22;43967;51.634;5.566;2022-08-21T05:49:25;25.60;54.10
58153;DHT22;43967;51.634;5.566;2022-08-21T05:54:27;25.70;54.20
58153;DHT22;43967;51.634;5.566;2022-08-21T05:59:28;25.70;54.20
58153;DHT22;43967;51.634;5.566;2022-08-21T06:04:29;25.70;54.20
58153;DHT22;43967;51.634;5.566;2022-08-21T06:09:30;25.70;54.20
58153;DHT22;43967;51.634;5.566;2022-08-21T06:14:31;25.70;54.20
58153;DHT22;43967;51.634;5.566;2022-08-21T06:19:33;25.70;54.20
58153;DHT22;43967;51.634;5.566;2022-08-21T06:24:34;25.70;54.20
58153;DHT22;43967;51.634;5.566;2022-08-21T06:29:36;25.80;54.30
58153;DHT22;43967;51.634;5.566;2022-08-21T06:34:39;25.80;54.30
58153;DHT22;43967;51.634;5.566;2022-08-21T06:39:40;25.90;54.30
58153;DHT22;43967;51.634;5.566;2022-08-21T06:44:42;25.90;54.30
58153;DHT22;43967;51.634;5.566;2022-08-21T06:49:43;25.90;54.30
58153;DHT22;43967;51.634;5.566;2022-08-21T06:54:45;25.90;54.20
58153;DHT22;43967;51.634;5.566;2022-08-21T06:59:46;26.00;54.30
58153;DHT22;43967;51.634;5.566;2022-08-21T07:04:47;25.10;53.20
58153;DHT22;43967;51.634;5.566;2022-08-21T07:09:48;24.80;54.10
58153;DHT22;43967;51.634;5.566;2022-08-21T07:14:49;24.60;54.60
58153;DHT22;43967;51.634;5.566;2022-08-21T07:19:50;24.40;55.40
58153;DHT22;43967;51.634;5.566;2022-08-21T07:24:51;24.30;56.30
58153;DHT22;43967;51.634;5.566;2022-08-21T07:29:52;24.30;56.50
58153;DHT22;43967;51.634;5.566;2022-08-21T07:34:54;24.40;56.60
58153;DHT22;43967;51.634;5.566;2022-08-21T07:39:55;24.50;56.90
58153;DHT22;43967;51.634;5.566;2022-08-21T07:44:56;24.50;56.90
58153;DHT22;43967;51.634;5.566;2022-08-21T07:49:57;24.40;57.20
58153;DHT22;43967;51.634;5.566;2022-08-21T07:54:58;24.50;57.40
58153;DHT22;43967;51.634;5.566;2022-08-21T08:00:00;24.40;57.80
58153;DHT22;43967;51.634;5.566;2022-08-21T08:05:06;24.50;57.80
58153;DHT22;43967;51.634;5.566;2022-08-21T08:10:08;24.50;57.40
58153;DHT22;43967;51.634;5.566;2022-08-21T08:15:12;24.60;57.60
58153;DHT22;43967;51.634;5.566;2022-08-21T08:20:16;24.60;57.60
58153;DHT22;43967;51.634;5.566;2022-08-21T08:25:18;24.60;57.50
58153;DHT22;43967;51.634;5.566;2022-08-21T08:30:20;24.70;57.70
58153;DHT22;43967;51.634;5.566;2022-08-21T08:35:22;24.50;58.10
58153;DHT22;43967;51.634;5.566;2022-08-21T08:40:35;24.60;58.20
58153;DHT22;43967;51.634;5.566;2022-08-21T08:45:40;24.60;58.10
58153;DHT22;43967;51.634;5.566;2022-08-21T08:50:57;24.60;58.30
58153;DHT22;43967;51.634;5.566;2022-08-21T08:56:01;24.60;58.00
58153;DHT22;43967;51.634;5.566;2022-08-21T09:01:06;24.70;58.20
58153;DHT22;43967;51.634;5.566;2022-08-21T09:22:54;24.80;57.80
58153;DHT22;43967;51.634;5.566;2022-08-21T09:27:59;24.80;57.80
58153;DHT22;43967;51.634;5.566;2022-08-21T09:33:00;24.90;57.30
58153;DHT22;43967;51.634;5.566;2022-08-21T09:38:05;24.90;57.10
58153;DHT22;43967;51.634;5.566;2022-08-21T09:48:19;25.00;56.50
58153;DHT22;43967;51.634;5.566;2022-08-21T09:53:24;25.00;56.60
58153;DHT22;43967;51.634;5.566;2022-08-21T09:58:32;25.10;56.60
58153;DHT22;43967;51.634;5.566;2022-08-21T10:03:34;25.10;55.40
58153;DHT22;43967;51.634;5.566;2022-08-21T10:08:37;25.20;55.50
58153;DHT22;43967;51.634;5.566;2022-08-21T10:35:19;25.30;53.90
58153;DHT22;43967;51.634;5.566;2022-08-21T10:40:26;25.30;53.90
58153;DHT22;43967;51.634;5.566;2022-08-21T10:45:35;25.40;53.70
58153;DHT22;43967;51.634;5.566;2022-08-21T10:50:57;25.40;53.90
58153;DHT22;43967;51.634;5.566;2022-08-21T11:01:17;25.30;53.10
58153;DHT22;43967;51.634;5.566;2022-08-21T11:06:25;25.30;53.40
58153;DHT22;43967;51.634;5.566;2022-08-21T11:11:38;25.30;53.50
58153;DHT22;43967;51.634;5.566;2022-08-21T11:16:43;25.40;53.40
58153;DHT22;43967;51.634;5.566;2022-08-21T11:27:26;25.40;53.20
58153;DHT22;43967;51.634;5.566;2022-08-21T11:38:00;25.40;53.00
58153;DHT22;43967;51.634;5.566;2022-08-21T11:53:46;25.60;51.80
58153;DHT22;43967;51.634;5.566;2022-08-21T11:58:53;25.60;52.10
58153;DHT22;43967;51.634;5.566;2022-08-21T12:04:02;25.70;52.10
58153;DHT22;43967;51.634;5.566;2022-08-21T12:09:07;25.70;51.30
58153;DHT22;43967;51.634;5.566;2022-08-21T12:14:12;25.70;51.20
58153;DHT22;43967;51.634;5.566;2022-08-21T12:29:35;25.60;51.20
58153;DHT22;43967;51.634;5.566;2022-08-21T12:35:04;25.60;51.20
58153;DHT22;43967;51.634;5.566;2022-08-21T12:40:40;25.50;51.50
58153;DHT22;43967;51.634;5.566;2022-08-21T12:45:45;25.60;52.20
58153;DHT22;43967;51.634;5.566;2022-08-21T12:50:58;25.70;51.50
58153;DHT22;43967;51.634;5.566;2022-08-21T12:56:12;25.70;51.50
58153;DHT22;43967;51.634;5.566;2022-08-21T13:01:24;25.50;50.70
58153;DHT22;43967;51.634;5.566;2022-08-21T13:06:30;25.70;51.50
58153;DHT22;43967;51.634;5.566;2022-08-21T13:11:33;25.80;50.70
58153;DHT22;43967;51.634;5.566;2022-08-21T13:16:35;25.80;49.60
58153;DHT22;43967;51.634;5.566;2022-08-21T13:21:42;25.80;49.70
58153;DHT22;43967;51.634;5.566;2022-08-21T13:26:43;25.90;48.80
58153;DHT22;43967;51.634;5.566;2022-08-21T13:31:55;25.90;48.40
58153;DHT22;43967;51.634;5.566;2022-08-21T13:36:59;25.90;47.80
58153;DHT22;43967;51.634;5.566;2022-08-21T13:42:04;26.00;48.00
58153;DHT22;43967;51.634;5.566;2022-08-21T13:47:11;26.00;48.20
58153;DHT22;43967;51.634;5.566;2022-08-21T13:52:22;26.10;48.70
58153;DHT22;43967;51.634;5.566;2022-08-21T13:57:32;26.00;49.00
58153;DHT22;43967;51.634;5.566;2022-08-21T14:02:39;26.00;48.90
58153;DHT22;43967;51.634;5.566;2022-08-21T14:07:42;26.00;48.80
58153;DHT22;43967;51.634;5.566;2022-08-21T14:17:52;26.10;48.50
58153;DHT22;43967;51.634;5.566;2022-08-21T14:22:53;26.10;48.30
58153;DHT22;43967;51.634;5.566;2022-08-21T14:33:04;26.10;48.30
58153;DHT22;43967;51.634;5.566;2022-08-21T14:38:14;26.10;48.00
58153;DHT22;43967;51.634;5.566;2022-08-21T14:43:16;26.10;47.90
58153;DHT22;43967;51.634;5.566;2022-08-21T14:48:18;26.10;48.00
58153;DHT22;43967;51.634;5.566;2022-08-21T14:53:19;26.10;48.00
58153;DHT22;43967;51.634;5.566;2022-08-21T14:58:20;26.10;48.10
58153;DHT22;43967;51.634;5.566;2022-08-21T15:03:22;26.10;47.70
58153;DHT22;43967;51.634;5.566;2022-08-21T15:08:23;26.10;47.60
58153;DHT22;43967;51.634;5.566;2022-08-21T15:13:24;26.10;47.40
58153;DHT22;43967;51.634;5.566;2022-08-21T15:18:28;26.10;47.70
58153;DHT22;43967;51.634;5.566;2022-08-21T15:23:29;26.20;47.70
58153;DHT22;43967;51.634;5.566;2022-08-21T15:28:31;26.10;47.50
58153;DHT22;43967;51.634;5.566;2022-08-21T15:33:32;26.10;47.90
58153;DHT22;43967;51.634;5.566;2022-08-21T15:38:33;26.10;47.30
58153;DHT22;43967;51.634;5.566;2022-08-21T15:43:45;26.00;47.50
58153;DHT22;43967;51.634;5.566;2022-08-21T15:48:46;25.90;47.90
58153;DHT22;43967;51.634;5.566;2022-08-21T15:53:48;25.90;48.30
58153;DHT22;43967;51.634;5.566;2022-08-21T15:58:50;26.00;48.50
58153;DHT22;43967;51.634;5.566;2022-08-21T16:03:54;26.00;48.50
58153;DHT22;43967;51.634;5.566;2022-08-21T16:08:55;25.90;48.60
58153;DHT22;43967;51.634;5.566;2022-08-21T16:13:56;25.90;49.30
58153;DHT22;43967;51.634;5.566;2022-08-21T16:18:57;25.90;49.60
58153;DHT22;43967;51.634;5.566;2022-08-21T16:23:59;25.80;49.80
58153;DHT22;43967;51.634;5.566;2022-08-21T16:29:00;25.70;49.40
58153;DHT22;43967;51.634;5.566;2022-08-21T16:34:02;25.70;49.70
58153;DHT22;43967;51.634;5.566;2022-08-21T16:39:03;25.70;49.80
58153;DHT22;43967;51.634;5.566;2022-08-21T16:44:05;25.70;50.00
58153;DHT22;43967;51.634;5.566;2022-08-21T16:49:06;25.70;50.20
58153;DHT22;43967;51.634;5.566;2022-08-21T16:54:08;25.70;50.00
58153;DHT22;43967;51.634;5.566;2022-08-21T16:59:10;25.60;49.60
58153;DHT22;43967;51.634;5.566;2022-08-21T17:04:13;25.60;49.40
58153;DHT22;43967;51.634;5.566;2022-08-21T17:09:14;25.60;49.80
58153;DHT22;43967;51.634;5.566;2022-08-21T17:14:18;25.60;49.80
58153;DHT22;43967;51.634;5.566;2022-08-21T17:19:20;25.50;49.70
58153;DHT22;43967;51.634;5.566;2022-08-21T17:24:21;25.40;49.80
58153;DHT22;43967;51.634;5.566;2022-08-21T17:29:28;25.20;50.20
58153;DHT22;43967;51.634;5.566;2022-08-21T17:34:30;25.10;51.10
58153;DHT22;43967;51.634;5.566;2022-08-21T17:39:31;25.00;51.20
58153;DHT22;43967;51.634;5.566;2022-08-21T17:44:36;24.90;51.40
58153;DHT22;43967;51.634;5.566;2022-08-21T17:49:37;24.80;51.60
58153;DHT22;43967;51.634;5.566;2022-08-21T17:54:38;24.70;51.70
58153;DHT22;43967;51.634;5.566;2022-08-21T17:59:39;24.60;52.20
58153;DHT22;43967;51.634;5.566;2022-08-21T18:04:41;24.60;52.10
58153;DHT22;43967;51.634;5.566;2022-08-21T18:09:45;24.50;52.60
58153;DHT22;43967;51.634;5.566;2022-08-21T18:14:46;24.50;52.40
58153;DHT22;43967;51.634;5.566;2022-08-21T18:19:49;24.40;52.60
58153;DHT22;43967;51.634;5.566;2022-08-21T18:24:52;24.40;52.60
58153;DHT22;43967;51.634;5.566;2022-08-21T18:29:55;24.30;53.50
58153;DHT22;43967;51.634;5.566;2022-08-21T18:34:57;24.30;52.60
58153;DHT22;43967;51.634;5.566;2022-08-21T18:39:59;24.20;53.40
58153;DHT22;43967;51.634;5.566;2022-08-21T18:45:01;24.10;53.60
58153;DHT22;43967;51.634;5.566;2022-08-21T18:50:08;24.00;54.30
58153;DHT22;43967;51.634;5.566;2022-08-21T18:55:12;23.90;53.90
58153;DHT22;43967;51.634;5.566;2022-08-21T19:00:18;23.90;54.50
58153;DHT22;43967;51.634;5.566;2022-08-21T19:05:20;23.90;55.60
58153;DHT22;43967;51.634;5.566;2022-08-21T19:10:22;23.80;57.00
58153;DHT22;43967;51.634;5.566;2022-08-21T19:15:23;23.70;58.20
58153;DHT22;43967;51.634;5.566;2022-08-21T19:20:26;23.60;59.20
58153;DHT22;43967;51.634;5.566;2022-08-21T19:25:28;23.50;58.50
58153;DHT22;43967;51.634;5.566;2022-08-21T19:30:29;23.40;57.70
58153;DHT22;43967;51.634;5.566;2022-08-21T19:35:31;23.40;56.30
58153;DHT22;43967;51.634;5.566;2022-08-21T19:40:32;23.40;56.20
58153;DHT22;43967;51.634;5.566;2022-08-21T19:45:34;23.30;57.20
58153;DHT22;43967;51.634;5.566;2022-08-21T19:50:35;23.30;56.80
58153;DHT22;43967;51.634;5.566;2022-08-21T19:55:36;23.20;56.30
58153;DHT22;43967;51.634;5.566;2022-08-21T20:00:37;23.10;56.60
58153;DHT22;43967;51.634;5.566;2022-08-21T20:05:38;23.10;57.50
58153;DHT22;43967;51.634;5.566;2022-08-21T20:10:40;23.00;59.70
58153;DHT22;43967;51.634;5.566;2022-08-21T20:15:41;22.80;60.90
58153;DHT22;43967;51.634;5.566;2022-08-21T20:20:43;22.70;62.20
58153;DHT22;43967;51.634;5.566;2022-08-21T20:25:45;22.70;62.40
58153;DHT22;43967;51.634;5.566;2022-08-21T20:30:46;22.60;62.30
58153;DHT22;43967;51.634;5.566;2022-08-21T20:35:48;22.50;61.90
58153;DHT22;43967;51.634;5.566;2022-08-21T20:41:00;22.30;63.60
58153;DHT22;43967;51.634;5.566;2022-08-21T20:46:02;22.20;63.20
58153;DHT22;43967;51.634;5.566;2022-08-21T20:51:14;22.20;63.10
58153;DHT22;43967;51.634;5.566;2022-08-21T20:56:50;22.00;64.20
58153;DHT22;43967;51.634;5.566;2022-08-21T21:01:55;22.10;64.00
58153;DHT22;43967;51.634;5.566;2022-08-21T21:06:58;22.40;62.40
58153;DHT22;43967;51.634;5.566;2022-08-21T21:12:04;22.50;61.70
58153;DHT22;43967;51.634;5.566;2022-08-21T21:17:26;22.50;61.60
58153;DHT22;43967;51.634;5.566;2022-08-21T21:22:36;22.60;62.10
58153;DHT22;43967;51.634;5.566;2022-08-21T21:27:59;22.60;61.50
58153;DHT22;43967;51.634;5.566;2022-08-21T21:33:03;22.80;60.90
58153;DHT22;43967;51.634;5.566;2022-08-21T21:38:15;22.80;60.70
58153;DHT22;43967;51.634;5.566;2022-08-21T21:43:34;22.90;60.40
58153;DHT22;43967;51.634;5.566;2022-08-21T21:53:57;22.90;59.90
58153;DHT22;43967;51.634;5.566;2022-08-21T22:05:22;23.30;60.20
58153;DHT22;43967;51.634;5.566;2022-08-21T22:10:48;23.70;59.20
58153;DHT22;43967;51.634;5.566;2022-08-21T22:15:53;24.00;58.40
58153;DHT22;43967;51.634;5.566;2022-08-21T22:21:03;24.20;57.90
58153;DHT22;43967;51.634;5.566;2022-08-21T22:26:16;24.30;57.50
58153;DHT22;43967;51.634;5.566;2022-08-21T22:31:28;24.50;57.20
58153;DHT22;43967;51.634;5.566;2022-08-21T22:36:35;24.60;57.00
58153;DHT22;43967;51.634;5.566;2022-08-21T22:41:41;24.60;56.80
58153;DHT22;43967;51.634;5.566;2022-08-21T22:47:00;24.70;57.40
58153;DHT22;43967;51.634;5.566;2022-08-21T22:52:26;24.80;57.30
58153;DHT22;43967;51.634;5.566;2022-08-21T22:57:34;24.80;56.40
58153;DHT22;43967;51.634;5.566;2022-08-21T23:07:42;24.90;56.20
58153;DHT22;43967;51.634;5.566;2022-08-21T23:12:48;24.90;56.10
58153;DHT22;43967;51.634;5.566;2022-08-21T23:18:02;24.90;56.00
58153;DHT22;43967;51.634;5.566;2022-08-21T23:49:57;25.10;56.00
